Time;durP1;ratioP1;P1;durP2;ratioP2;P2;SDS_P1;SDS_P2;PMS_P1;PMS_P2;Temp;Humidity;BMP_temperature;BMP_pressure;BME280_temperature;BME280_humidity;BME280_pressure;Samples;Min_cycle;Max_cycle;Signal;HPM_P1;HPM_P2
2023/01/27 02:15:53;;;;;;;394.60;115.80;;;;;;;-6.34;100.00;99545.74;105714;1295;557715;-77
2023/01/27 02:18:22;;;;;;;404.90;126.60;;;;;;;-6.21;100.00;99491.23;107063;1287;198319;-76
2023/01/27 02:20:53;;;;;;;290.10;87.10;;;;;;;-6.19;100.00;99479.38;107208;1287;25447;-77
2023/01/27 02:23:52;;;;;;;182.80;64.40;;;;;;;-6.17;100.00;99475.25;106933;1287;25382;-76
2023/01/27 02:26:27;;;;;;;222.40;77.80;;;;;;;-6.16;100.00;99476.55;107117;1287;27001;-77
2023/01/27 02:28:58;;;;;;;138.50;50.70;;;;;;;-6.15;100.00;99477.23;106904;1287;22492;-76
2023/01/27 02:31:27;;;;;;;109.60;41.30;;;;;;;-6.15;100.00;99480.02;106397;1287;1002499;-79
2023/01/27 02:34:02;;;;;;;124.50;41.00;;;;;;;-6.13;100.00;99479.42;107091;1287;25265;-77
2023/01/27 02:36:35;;;;;;;183.70;57.10;;;;;;;-6.13;100.00;99481.52;107060;1287;25978;-75
2023/01/27 02:39:04;;;;;;;206.30;57.40;;;;;;;-6.13;100.00;99473.45;107028;1287;23305;-77
2023/01/27 02:41:36;;;;;;;185.40;55.90;;;;;;;-6.11;100.00;99477.55;106444;1287;1003696;-76
2023/01/27 02:44:05;;;;;;;186.10;59.10;;;;;;;-6.10;100.00;99475.04;106356;1287;1002846;-76
2023/01/27 02:46:35;;;;;;;136.30;48.50;;;;;;;-6.12;100.00;99472.85;107037;1287;25474;-79
2023/01/27 02:49:04;;;;;;;48.30;20.70;;;;;;;-6.16;100.00;99466.77;107211;1287;24232;-79
2023/01/27 02:51:34;;;;;;;33.60;14.40;;;;;;;-6.21;100.00;99461.05;106519;1287;1002876;-77
2023/01/27 02:54:03;;;;;;;32.90;13.40;;;;;;;-6.24;100.00;99454.89;106609;1287;1003593;-76
2023/01/27 02:56:32;;;;;;;44.40;19.50;;;;;;;-6.26;100.00;99444.29;107097;1287;26944;-77
2023/01/27 02:59:01;;;;;;;74.60;28.50;;;;;;;-6.27;100.00;99438.21;106428;1287;1002966;-78
2023/01/27 03:01:34;;;;;;;;;;;;;;;-6.28;100.00;99433.17;106418;1287;1003214;-78
2023/01/27 03:04:04;;;;;;;49.70;19.90;;;;;;;-6.29;100.00;99426.02;107217;1287;22612;-77
2023/01/27 03:06:38;;;;;;;61.50;22.00;;;;;;;-6.29;100.00;99424.10;106617;1287;1002938;-77
2023/01/27 03:09:07;;;;;;;66.70;26.80;;;;;;;-6.30;100.00;99417.80;106382;1287;1002912;-77
2023/01/27 03:20:01;;;;;;;690.50;206.90;;;;;;;-6.29;100.00;99391.14;107199;1287;23018;-77
2023/01/27 03:22:30;;;;;;;760.10;223.60;;;;;;;-6.27;100.00;99384.70;107510;1284;25490;-79
2023/01/27 03:25:02;;;;;;;480.40;132.30;;;;;;;-6.24;100.00;99381.04;107500;1284;23934;-78
2023/01/27 03:27:31;;;;;;;175.40;54.20;;;;;;;-6.20;100.00;99379.42;107677;1284;22653;-78
2023/01/27 03:30:35;;;;;;;91.50;33.80;;;;;;;-6.10;100.00;99371.35;106955;1292;22851;-79
2023/01/27 03:33:31;;;;;;;61.10;21.90;;;;;;;-5.99;100.00;99358.98;106619;1284;1002981;-76
2023/01/27 03:47:15;;;;;;;28.80;11.20;;;;;;;-5.51;100.00;99274.52;107203;1284;22690;-77
2023/01/27 03:49:43;;;;;;;26.10;11.00;;;;;;;-5.45;100.00;99264.30;106538;1284;1003603;-77
2023/01/27 03:52:12;;;;;;;36.10;14.00;;;;;;;-5.39;100.00;99256.05;107341;1284;22559;-77
2023/01/27 03:54:40;;;;;;;27.50;12.10;;;;;;;-5.35;100.00;99242.11;106532;1276;1002999;-77
2023/01/27 03:57:09;;;;;;;27.20;10.90;;;;;;;-5.31;100.00;99226.98;107540;1284;25437;-77
2023/01/27 03:59:38;;;;;;;22.80;8.90;;;;;;;-5.28;100.00;99213.58;106488;1284;1003073;-78
2023/01/27 04:07:43;;;;;;;29.70;12.50;;;;;;;-5.09;100.00;99180.15;107790;1280;22491;-76
2023/01/27 04:10:11;;;;;;;28.00;12.50;;;;;;;-5.03;100.00;99168.85;107739;1280;22488;-77
2023/01/27 04:12:40;;;;;;;26.70;11.30;;;;;;;-4.97;100.00;99151.23;107541;1280;26815;-77
2023/01/27 04:15:09;;;;;;;28.00;12.10;;;;;;;-4.92;100.00;99139.75;106938;1280;1003188;-77
2023/01/27 04:17:40;;;;;;;37.70;11.70;;;;;;;-4.87;100.00;99125.00;107129;1279;1002350;-78
2023/01/27 04:20:10;;;;;;;28.30;11.60;;;;;;;-4.82;100.00;99112.72;107707;1280;22550;-78
2023/01/27 04:22:38;;;;;;;29.20;11.90;;;;;;;-4.75;100.00;99095.41;107577;1279;24222;-78
2023/01/27 04:25:08;;;;;;;70.00;25.20;;;;;;;-4.68;100.00;99084.60;106837;1280;1003824;-80
2023/01/27 04:27:42;;;;;;;;;;;;;;;-4.61;100.00;99070.42;106926;1280;1002821;-79
2023/01/27 04:30:11;;;;;;;360.40;96.40;;;;;;;-4.54;100.00;99055.55;107622;1280;22544;-76
2023/01/27 04:32:40;;;;;;;107.50;38.70;;;;;;;-4.48;100.00;99037.77;107584;1280;23966;-79
2023/01/27 04:35:09;;;;;;;72.50;29.50;;;;;;;-4.45;100.00;99023.27;107734;1280;25688;-77
2023/01/27 04:37:38;;;;;;;80.10;32.30;;;;;;;-4.42;100.00;98977.50;107542;1279;25644;-78
2023/01/27 04:40:08;;;;;;;135.50;49.60;;;;;;;-4.36;100.00;98963.28;107387;1280;22473;-78
2023/01/27 04:42:37;;;;;;;98.40;36.80;;;;;;;-4.34;100.00;98946.38;107498;1280;26038;-77
2023/01/27 04:45:06;;;;;;;72.20;27.40;;;;;;;-4.33;100.00;98934.70;106756;1280;1003797;-77
2023/01/27 04:47:35;;;;;;;67.90;26.20;;;;;;;-4.34;100.00;98934.09;107489;1280;22597;-77
2023/01/27 04:50:05;;;;;;;44.30;19.10;;;;;;;-4.35;100.00;98935.38;106753;1280;1003345;-77
2023/01/27 04:52:33;;;;;;;48.80;18.00;;;;;;;-4.36;100.00;98930.50;106749;1280;1003227;-77
2023/01/27 04:55:05;;;;;;;36.40;15.30;;;;;;;-4.37;100.00;98937.47;106518;1280;1003368;-78
2023/01/27 04:57:33;;;;;;;45.20;17.40;;;;;;;-4.38;100.00;98939.45;107373;1280;22575;-77
2023/01/27 05:00:04;;;;;;;42.40;17.30;;;;;;;-4.37;100.00;98937.09;106694;1280;1003542;-76
2023/01/27 05:02:33;;;;;;;33.00;14.00;;;;;;;-4.35;100.00;98930.60;107534;1280;22637;-78
2023/01/27 05:05:04;;;;;;;29.30;13.80;;;;;;;-4.30;100.00;98933.64;106739;1280;1002969;-78
2023/01/27 05:07:34;;;;;;;28.70;13.80;;;;;;;-4.25;100.00;98929.41;107424;1280;22547;-77
2023/01/27 05:10:02;;;;;;;30.90;12.40;;;;;;;-4.19;100.00;98928.10;106788;1280;1003340;-78
2023/01/27 05:12:32;;;;;;;28.70;12.50;;;;;;;-4.13;100.00;98925.23;107589;1280;25568;-78
2023/01/27 05:15:00;;;;;;;31.00;13.40;;;;;;;-4.07;100.00;98927.09;107319;1280;23992;-79
2023/01/27 05:17:31;;;;;;;38.80;17.10;;;;;;;-4.02;100.00;98915.19;107664;1280;26041;-78
2023/01/27 05:19:59;;;;;;;34.90;15.80;;;;;;;-4.02;100.00;98911.96;106817;1280;1003411;-78
2023/01/27 05:22:28;;;;;;;29.10;12.40;;;;;;;-4.02;100.00;98915.32;106884;1280;1002767;-77
2023/01/27 05:24:57;;;;;;;31.80;13.10;;;;;;;-4.03;100.00;98904.98;107627;1280;22525;-79
2023/01/27 05:27:26;;;;;;;26.20;11.30;;;;;;;-4.04;100.00;98904.36;107436;1280;22537;-76
2023/01/27 05:29:54;;;;;;;32.30;14.20;;;;;;;-4.06;100.00;98909.10;106705;1273;1003277;-76
2023/01/27 05:32:23;;;;;;;26.90;12.00;;;;;;;-4.08;100.00;98907.63;107271;1280;23768;-77
2023/01/27 05:34:54;;;;;;;27.80;11.50;;;;;;;-4.08;100.00;98915.21;107408;1280;25473;-78
2023/01/27 05:37:22;;;;;;;25.00;10.90;;;;;;;-4.07;100.00;98905.86;106929;1280;1002963;-76
2023/01/27 05:39:51;;;;;;;27.60;11.70;;;;;;;-4.07;100.00;98903.18;107512;1280;22771;-77
2023/01/27 05:42:20;;;;;;;29.50;12.40;;;;;;;-4.05;100.00;98896.52;107454;1280;25423;-76
2023/01/27 05:44:49;;;;;;;32.60;13.20;;;;;;;-4.02;100.00;98891.02;106534;1280;1003055;-79
2023/01/27 05:47:17;;;;;;;41.70;15.20;;;;;;;-3.98;100.00;98895.19;107201;1280;22533;-77
2023/01/27 05:49:46;;;;;;;39.80;17.10;;;;;;;-3.92;100.00;98897.05;107587;1280;24228;-77
2023/01/27 05:52:15;;;;;;;34.10;15.20;;;;;;;-3.86;100.00;98896.64;107498;1280;23831;-77
2023/01/27 05:54:44;;;;;;;28.50;13.60;;;;;;;-3.82;100.00;98888.56;107452;1280;22532;-77
2023/01/27 05:57:13;;;;;;;33.40;17.40;;;;;;;-3.77;100.00;98885.80;106810;1280;1003731;-77
2023/01/27 05:59:42;;;;;;;41.70;19.10;;;;;;;-3.76;100.00;98876.88;107590;1280;24261;-77
2023/01/27 06:02:11;;;;;;;29.60;12.60;;;;;;;-3.73;100.00;98875.31;107466;1280;22549;-78
2023/01/27 06:04:39;;;;;;;25.00;12.10;;;;;;;-3.73;100.00;98869.14;107684;1280;25256;-78
2023/01/27 06:07:09;;;;;;;27.90;12.80;;;;;;;-3.72;100.00;98873.48;107899;1280;26769;-78
2023/01/27 06:09:37;;;;;;;29.60;11.70;;;;;;;-3.72;100.00;98869.22;106955;1280;1003260;-79
2023/01/27 06:12:07;;;;;;;33.10;14.60;;;;;;;-3.72;100.00;98862.73;107504;1280;24218;-78
2023/01/27 06:14:36;;;;;;;28.10;12.20;;;;;;;-3.73;100.00;98858.04;107546;1280;25440;-78
2023/01/27 06:17:05;;;;;;;32.50;11.50;;;;;;;-3.77;100.00;98863.39;106902;1280;1002414;-78
2023/01/27 06:19:34;;;;;;;29.20;12.40;;;;;;;-3.79;100.00;98862.15;106816;1280;1003241;-79
2023/01/27 06:22:04;;;;;;;30.50;12.50;;;;;;;-3.82;100.00;98861.65;106598;1280;1003088;-75
2023/01/27 06:24:33;;;;;;;32.40;12.40;;;;;;;-3.82;100.00;98863.05;107089;1280;22628;-75
2023/01/27 06:27:02;;;;;;;31.60;13.20;;;;;;;-3.78;100.00;98852.96;107185;1280;23886;-74
2023/01/27 06:29:32;;;;;;;36.10;14.20;;;;;;;-3.74;100.00;98851.08;107239;1280;25964;-74
2023/01/27 06:32:01;;;;;;;36.80;15.90;;;;;;;-3.70;100.00;98844.98;107154;1257;24324;-74
2023/01/27 06:34:30;;;;;;;35.40;15.20;;;;;;;-3.66;100.00;98844.98;107125;1280;23944;-74
2023/01/27 06:36:58;;;;;;;32.30;14.20;;;;;;;-3.60;100.00;98841.63;107222;1275;22542;-72
2023/01/27 06:39:28;;;;;;;37.60;15.20;;;;;;;-3.54;100.00;98834.67;106076;1275;1003040;-73
2023/01/27 06:41:56;;;;;;;30.20;13.40;;;;;;;-3.50;100.00;98826.58;107013;1273;22543;-75
2023/01/27 06:44:25;;;;;;;30.70;13.20;;;;;;;-3.47;100.00;98821.09;107167;1280;23881;-77
2023/01/27 06:46:53;;;;;;;29.90;13.00;;;;;;;-3.43;100.00;98811.45;106344;1280;1003690;-73
2023/01/27 06:49:22;;;;;;;30.80;12.90;;;;;;;-3.39;100.00;98815.03;107248;1279;27957;-74
2023/01/27 06:51:51;;;;;;;34.00;14.10;;;;;;;-3.35;100.00;98806.83;106699;1281;1002959;-77
2023/01/27 06:54:20;;;;;;;29.30;13.30;;;;;;;-3.31;100.00;98800.55;106577;1281;1003227;-75
2023/01/27 06:56:49;;;;;;;35.60;15.50;;;;;;;-3.28;100.00;98797.69;107216;1281;25436;-75
2023/01/27 06:59:18;;;;;;;29.60;13.70;;;;;;;-3.24;100.00;98793.70;107262;1281;25294;-75
2023/01/27 07:01:47;;;;;;;32.60;13.40;;;;;;;-3.22;100.00;98785.42;106647;1281;1003380;-75
2023/01/27 07:04:19;;;;;;;30.80;14.00;;;;;;;-3.18;100.00;98782.52;107089;1281;23774;-75
2023/01/27 07:06:51;;;;;;;29.60;13.40;;;;;;;-3.13;100.00;98772.27;107336;1280;22736;-76
2023/01/27 07:09:22;;;;;;;29.90;14.00;;;;;;;-3.08;100.00;98775.91;107576;1274;22731;-75
2023/01/27 07:11:52;;;;;;;29.20;13.80;;;;;;;-3.02;100.00;98767.58;107347;1280;24280;-76
2023/01/27 07:14:21;;;;;;;37.40;15.00;;;;;;;-2.96;100.00;98760.77;107699;1280;25942;-74
2023/01/27 07:16:50;;;;;;;36.20;15.70;;;;;;;-2.91;100.00;98758.58;106884;1280;1002502;-74
2023/01/27 07:19:19;;;;;;;33.20;14.50;;;;;;;-2.86;100.00;98755.77;107390;1280;25364;-75
2023/01/27 07:21:48;;;;;;;29.10;12.50;;;;;;;-2.83;100.00;98749.00;107270;1280;25240;-74
2023/01/27 07:24:18;;;;;;;32.70;14.80;;;;;;;-2.80;100.00;98750.16;107101;1273;24133;-72
2023/01/27 07:26:47;;;;;;;27.80;13.10;;;;;;;-2.77;100.00;98744.48;107099;1279;25442;-73
2023/01/27 07:29:16;;;;;;;37.40;16.10;;;;;;;-2.75;100.00;98736.00;107291;1279;25559;-71
2023/01/27 07:31:45;;;;;;;33.70;14.30;;;;;;;-2.70;100.00;98732.64;107217;1279;26061;-72
2023/01/27 07:34:14;;;;;;;31.70;13.40;;;;;;;-2.67;100.00;98725.14;107257;1279;23854;-72
2023/01/27 07:36:42;;;;;;;30.80;14.20;;;;;;;-2.63;100.00;98725.25;107098;1279;22768;-71
2023/01/27 07:39:13;;;;;;;30.00;13.00;;;;;;;-2.61;100.00;98718.34;106429;1279;1002933;-73
2023/01/27 07:41:42;;;;;;;29.70;13.60;;;;;;;-2.57;100.00;98714.50;107356;1279;25466;-73
2023/01/27 07:44:16;;;;;;;31.70;13.40;;;;;;;-2.52;100.00;98704.75;107232;1279;26583;-73
2023/01/27 07:46:46;;;;;;;29.90;12.50;;;;;;;-2.45;100.00;98707.77;107249;1279;22928;-73
2023/01/27 07:49:15;;;;;;;30.90;12.80;;;;;;;-2.38;100.00;98704.56;107379;1265;25438;-74
2023/01/27 07:51:45;;;;;;;26.40;11.90;;;;;;;-2.32;100.00;98697.70;107838;1276;22504;-74
2023/01/27 07:54:13;;;;;;;28.70;12.90;;;;;;;-2.26;100.00;98683.64;107655;1277;23886;-72
2023/01/27 07:56:42;;;;;;;27.60;11.80;;;;;;;-2.21;100.00;98670.16;107673;1277;22471;-72
2023/01/27 07:59:11;;;;;;;27.30;12.90;;;;;;;-2.13;100.00;98651.55;107591;1277;22599;-74
2023/01/27 08:01:40;;;;;;;26.10;12.50;;;;;;;-2.06;100.00;98634.20;107735;1276;23122;-73
2023/01/27 08:04:09;;;;;;;36.50;14.80;;;;;;;-2.00;100.00;98621.20;107655;1277;25415;-73
2023/01/27 08:06:43;;;;;;;33.30;14.70;;;;;;;-1.92;100.00;98619.13;106663;1277;1002539;-74
2023/01/27 08:09:41;;;;;;;29.30;13.20;;;;;;;-1.82;100.00;98597.95;107637;1277;22576;-72
2023/01/27 08:12:11;;;;;;;30.80;13.80;;;;;;;-1.76;100.00;98605.20;107911;1277;23355;-74
2023/01/27 08:14:40;;;;;;;29.80;13.90;;;;;;;-1.69;100.00;98605.58;107762;1278;25575;-74
2023/01/27 08:17:08;;;;;;;29.80;12.90;;;;;;;-1.64;100.00;98613.91;107616;1278;23919;-72
2023/01/27 08:19:37;;;;;;;35.90;14.70;;;;;;;-1.58;100.00;98623.02;107876;1277;24119;-74
2023/01/27 08:22:07;;;;;;;38.60;16.60;;;;;;;-1.54;100.00;98635.17;107901;1277;24322;-71
2023/01/27 08:24:36;;;;;;;29.10;14.20;;;;;;;-1.48;100.00;98641.29;107171;1277;1003298;-75
2023/01/27 08:27:05;;;;;;;28.20;13.10;;;;;;;-1.42;100.00;98640.95;107890;1277;24117;-74
2023/01/27 08:29:35;;;;;;;26.50;12.30;;;;;;;-1.37;100.00;98640.48;107606;1254;24235;-75
2023/01/27 08:32:04;;;;;;;31.90;12.60;;;;;;;-1.28;100.00;98642.27;107752;1277;22475;-73
2023/01/27 08:34:33;;;;;;;29.30;13.20;;;;;;;-1.23;100.00;98644.33;107863;1277;25436;-73
2023/01/27 08:37:03;;;;;;;32.40;14.50;;;;;;;-1.22;100.00;98650.85;107195;1277;1002428;-74
2023/01/27 08:39:32;;;;;;;32.60;13.70;;;;;;;-1.20;100.00;98662.94;107137;1277;1003169;-74
2023/01/27 08:42:01;;;;;;;23.30;10.70;;;;;;;-1.18;100.00;98673.36;106854;1277;1003333;-74
2023/01/27 08:44:31;;;;;;;25.80;10.70;;;;;;;-1.14;100.00;98679.21;107834;1277;22478;-78
2023/01/27 08:46:59;;;;;;;27.20;11.80;;;;;;;-1.10;100.00;98687.39;108059;1277;22806;-77
2023/01/27 08:49:30;;;;;;;28.30;13.20;;;;;;;-1.08;100.00;98699.42;108276;1277;25310;-74
2023/01/27 08:52:00;;;;;;;32.00;13.40;;;;;;;-1.05;100.00;98712.95;108387;1277;25433;-77
2023/01/27 08:54:29;;;;;;;32.40;14.50;;;;;;;-1.03;100.00;98725.55;107589;1277;1003673;-76
2023/01/27 08:56:59;;;;;;;30.70;14.20;;;;;;;-1.04;100.00;98748.11;108391;1277;25987;-76
2023/01/27 08:59:29;;;;;;;36.80;16.00;;;;;;;-1.04;100.00;98765.91;108264;1277;25245;-77
2023/01/27 09:02:01;;;;;;;34.50;14.80;;;;;;;-1.02;100.00;98780.64;107465;1277;1003025;-77
2023/01/27 09:04:29;;;;;;;38.80;17.10;;;;;;;-1.00;100.00;98793.01;108255;1277;22702;-76
2023/01/27 09:06:58;;;;;;;36.60;17.70;;;;;;;-0.99;100.00;98815.36;108392;1277;22523;-77
2023/01/27 09:09:28;;;;;;;39.10;18.70;;;;;;;-0.96;100.00;98832.64;108478;1274;22685;-77
2023/01/27 09:11:57;;;;;;;47.90;20.80;;;;;;;-0.94;100.00;98852.19;108085;1277;22824;-77
2023/01/27 09:14:28;;;;;;;41.40;19.70;;;;;;;-0.98;100.00;98864.16;108438;1269;22504;-77
2023/01/27 09:16:56;;;;;;;36.70;18.20;;;;;;;-0.97;100.00;98872.58;108331;1275;22553;-76
2023/01/27 09:19:25;;;;;;;40.40;18.80;;;;;;;-0.97;100.00;98887.25;108348;1270;25423;-76
2023/01/27 09:21:56;;;;;;;32.20;17.40;;;;;;;-0.98;100.00;98901.27;108136;1278;22552;-76
2023/01/27 09:24:32;;;;;;;39.90;18.70;;;;;;;-0.92;100.00;98906.48;108133;1278;24239;-77
2023/01/27 09:27:02;;;;;;;35.40;17.60;;;;;;;-0.84;100.00;98903.02;107672;1269;1003151;-77
2023/01/27 09:29:32;;;;;;;36.50;17.50;;;;;;;-0.80;100.00;98907.58;108496;1277;22543;-77
2023/01/27 09:32:02;;;;;;;43.10;19.30;;;;;;;-0.75;100.00;98918.90;108130;1275;1002395;-76
2023/01/27 09:34:31;;;;;;;36.40;16.70;;;;;;;-0.72;100.00;98932.31;108166;1277;22477;-76
2023/01/27 09:37:07;;;;;;;43.80;21.00;;;;;;;-0.72;100.00;98943.65;108175;1277;24235;-75
2023/01/27 09:39:46;;;;;;;34.90;16.80;;;;;;;-0.72;100.00;98954.43;108330;1277;23888;-76
2023/01/27 09:43:09;;;;;;;39.60;17.90;;;;;;;-0.68;100.00;98955.67;108261;1275;23213;-75
2023/01/27 09:45:45;;;;;;;37.60;17.50;;;;;;;-0.63;100.00;98954.86;107440;1277;1003783;-75
2023/01/27 09:48:58;;;;;;;42.30;19.80;;;;;;;-0.63;100.00;98968.86;108092;1269;22633;-75
2023/01/27 09:51:33;;;;;;;54.40;23.00;;;;;;;-0.60;100.00;98975.01;108105;1277;23846;-77
2023/01/27 09:54:38;;;;;;;40.30;19.70;;;;;;;-0.57;100.00;98977.23;108152;1277;22604;-76
2023/01/27 09:57:35;;;;;;;39.20;17.10;;;;;;;-0.55;100.00;98978.83;107249;1274;1002517;-79
2023/01/27 10:00:10;;;;;;;38.90;18.40;;;;;;;-0.50;100.00;98974.90;107024;1270;1003262;-76
2023/01/27 10:03:00;;;;;;;34.30;16.20;;;;;;;-0.44;100.00;98972.77;107693;1277;1002633;-75
2023/01/27 10:05:36;;;;;;;35.60;17.60;;;;;;;-0.35;100.00;98969.41;107372;1271;1003361;-75
2023/01/27 10:08:30;;;;;;;33.00;17.50;;;;;;;-0.28;100.00;98968.50;107007;1274;25312;-67
2023/01/27 10:11:19;;;;;;;36.80;17.30;;;;;;;-0.20;100.00;98974.90;107024;1270;22537;-70
2023/01/27 10:14:04;;;;;;;35.90;16.10;;;;;;;-0.15;100.00;98977.33;107019;1270;22561;-69
2023/01/27 10:16:38;;;;;;;32.40;17.20;;;;;;;-0.17;100.00;98989.17;106575;1272;25432;-70
2023/01/27 10:19:15;;;;;;;56.90;29.40;;;;;;;-0.16;100.00;98995.79;107559;1270;25256;-70
2023/01/27 10:21:58;;;;;;;37.30;20.50;;;;;;;-0.13;100.00;98999.08;106228;1272;1002749;-69
2023/01/27 10:24:38;;;;;;;39.30;20.80;;;;;;;-0.04;100.00;98995.36;106574;1277;22540;-69
2023/01/27 10:27:21;;;;;;;44.80;22.10;;;;;;;0.03;100.00;99002.03;107110;1275;22479;-68
2023/01/27 10:29:57;;;;;;;34.90;18.00;;;;;;;0.04;100.00;99004.60;107046;1277;24242;-68
2023/01/27 10:32:44;;;;;;;36.80;18.50;;;;;;;0.06;100.00;99023.41;106820;1276;22763;-70
2023/01/27 10:46:19;;;;;;;37.30;18.00;;;;;;;-0.03;100.00;99124.23;103788;1295;1003778;-68
2023/01/27 10:48:51;;;;;;;33.70;16.40;;;;;;;-0.06;100.00;99068.29;105293;1285;1003638;-63
2023/01/27 10:51:35;;;;;;;35.20;16.20;;;;;;;-0.04;100.00;99073.13;106094;1285;25441;-65
2023/01/27 10:54:15;;;;;;;31.70;15.90;;;;;;;-0.02;100.00;99076.16;106014;1288;25405;-64
2023/01/27 10:57:00;;;;;;;33.70;15.00;;;;;;;0.03;100.00;99073.58;106210;1288;22540;-65
2023/01/27 10:59:48;;;;;;;33.50;15.70;;;;;;;0.08;100.00;99065.75;106056;1286;231655;-65
2023/01/27 11:02:56;;;;;;;38.90;17.50;;;;;;;0.06;100.00;99073.38;106159;1284;25258;-65
2023/01/27 11:05:28;;;;;;;32.80;16.20;;;;;;;0.06;100.00;99080.07;106315;1283;22537;-64
2023/01/27 11:08:11;;;;;;;28.40;13.80;;;;;;;0.10;100.00;99085.24;106449;1284;25313;-64
2023/01/27 11:11:43;;;;;;;28.90;13.20;;;;;;;0.10;100.00;99094.67;105644;1284;1004113;-63
2023/01/27 11:13:33;;;;;;;39.20;15.50;;;;;;;0.08;100.00;99101.55;105548;1283;1003628;-64
2023/01/27 11:16:17;;;;;;;42.00;16.90;;;;;;;0.11;100.00;99106.63;106250;1280;25441;-66
2023/01/27 11:19:04;;;;;;;38.80;16.70;;;;;;;0.17;100.00;99098.34;106014;1284;25258;-67
2023/01/27 11:21:56;;;;;;;29.30;12.30;;;;;;;0.22;100.00;99091.35;106034;1269;24252;-66
2023/01/27 11:24:45;;;;;;;32.10;14.40;;;;;;;0.23;100.00;99096.40;106445;1283;25419;-66
2023/01/27 11:27:12;;;;;;;34.20;14.90;;;;;;;0.20;100.00;99102.70;106390;1282;25303;-66
2023/01/27 11:29:45;;;;;;;30.70;14.00;;;;;;;0.14;100.00;99113.62;106412;1283;22529;-66
2023/01/27 11:32:47;;;;;;;31.80;14.20;;;;;;;0.14;100.00;99118.20;106392;1282;25527;-64
2023/01/27 11:35:17;;;;;;;31.10;13.50;;;;;;;0.14;100.00;99123.89;106388;1276;22536;-66
2023/01/27 11:37:47;;;;;;;31.40;14.90;;;;;;;0.12;100.00;99133.30;106472;1276;25433;-66
2023/01/27 11:40:34;;;;;;;32.40;16.40;;;;;;;0.08;100.00;99139.99;106306;1282;22546;-66
2023/01/27 11:43:01;;;;;;;30.40;14.10;;;;;;;0.07;100.00;99142.45;106317;1276;25306;-65
2023/01/27 11:45:34;;;;;;;30.60;13.30;;;;;;;0.08;100.00;99139.86;106146;1284;25361;-64
2023/01/27 11:48:03;;;;;;;28.60;14.00;;;;;;;0.09;100.00;99137.57;105967;1281;1003650;-64
2023/01/27 11:50:32;;;;;;;29.00;12.90;;;;;;;0.11;100.00;99131.73;106570;1282;24257;-65
2023/01/27 11:53:08;;;;;;;30.10;15.50;;;;;;;0.17;100.00;99118.16;109608;1281;27662;-65
2023/01/27 11:55:39;;;;;;;29.10;13.50;;;;;;;0.29;100.00;99099.95;107587;1281;22534;-65
2023/01/27 11:58:12;;;;;;;29.00;13.10;;;;;;;0.45;100.00;99077.20;106375;1282;22522;-65
2023/01/27 12:00:46;;;;;;;27.50;11.90;;;;;;;0.62;100.00;99054.26;106756;1279;22883;-64
2023/01/27 12:03:22;;;;;;;28.60;14.40;;;;;;;0.80;100.00;99034.81;106323;1283;22624;-66
2023/01/27 12:05:54;;;;;;;36.60;18.40;;;;;;;0.98;100.00;99012.30;106283;1283;25382;-65
2023/01/27 12:08:41;;;;;;;28.60;14.00;;;;;;;1.19;100.00;98982.92;106458;1282;25497;-66
2023/01/27 12:11:25;;;;;;;32.30;13.30;;;;;;;1.44;100.00;98949.60;106207;1283;25306;-63
2023/01/27 12:13:54;;;;;;;36.00;13.50;;;;;;;1.53;100.00;98956.11;106351;1283;22527;-65
2023/01/27 12:16:43;;;;;;;31.70;13.60;;;;;;;1.60;100.00;98973.77;106321;1282;25383;-66
2023/01/27 12:19:21;;;;;;;32.20;12.70;;;;;;;1.80;100.00;98982.02;106325;1283;25437;-65
2023/01/27 12:21:51;;;;;;;30.20;12.90;;;;;;;1.98;100.00;98991.63;106308;1283;26639;-64
2023/01/27 12:24:32;;;;;;;32.60;15.20;;;;;;;1.92;100.00;99040.10;106437;1282;22788;-67
2023/01/27 12:26:59;;;;;;;26.50;12.90;;;;;;;1.85;100.00;99085.57;105565;1279;1002912;-67
2023/01/27 12:29:31;;;;;;;37.80;14.60;;;;;;;1.86;100.00;99119.90;106363;1282;25342;-66
2023/01/27 12:31:58;;;;;;;28.90;14.70;;;;;;;1.95;100.00;99142.63;106727;1283;22525;-67
2023/01/27 12:34:36;;;;;;;33.90;15.20;;;;;;;2.09;100.00;99151.33;106259;1283;26525;-68
2023/01/27 12:37:05;;;;;;;30.40;14.00;;;;;;;2.25;100.00;99150.61;106847;1283;22538;-75
2023/01/27 12:39:42;;;;;;;30.80;14.80;;;;;;;2.49;100.00;99145.05;106809;1283;22617;-73
2023/01/27 12:42:37;;;;;;;35.20;15.70;;;;;;;2.74;100.00;99150.14;106354;1283;26596;-74
2023/01/27 12:45:30;;;;;;;34.90;15.40;;;;;;;2.91;100.00;99167.79;106472;1284;25277;-73
2023/01/27 12:48:00;;;;;;;37.80;16.90;;;;;;;3.06;100.00;99193.52;105823;1283;1002933;-71
2023/01/27 12:50:32;;;;;;;32.90;15.90;;;;;;;3.16;100.00;99220.13;105766;1260;1014206;-74
2023/01/27 12:53:08;;;;;;;31.20;15.70;;;;;;;3.19;100.00;99261.04;106447;1282;23857;-74
2023/01/27 12:55:45;;;;;;;32.60;15.80;;;;;;;3.27;100.00;99284.30;105703;1282;1003736;-75
2023/01/27 12:58:38;;;;;;;33.40;16.70;;;;;;;3.40;100.00;99294.49;106540;1283;23390;-76
2023/01/27 13:01:30;;;;;;;33.50;16.70;;;;;;;3.63;100.00;99286.70;105790;1284;1002887;-75
2023/01/27 13:04:01;;;;;;;33.80;15.50;;;;;;;3.88;100.00;99274.84;106930;1279;25599;-75
2023/01/27 13:06:40;;;;;;;35.30;15.70;;;;;;;4.00;100.00;99289.73;107010;1277;24217;-75
2023/01/27 13:09:26;;;;;;;40.40;17.80;;;;;;;4.02;100.00;99288.85;107008;1277;25367;-75
2023/01/27 13:11:57;;;;;;;36.70;16.30;;;;;;;3.95;100.00;99331.02;109242;1278;24228;-74
2023/01/27 13:14:27;;;;;;;33.40;16.80;;;;;;;3.91;100.00;99365.88;108105;1277;25437;-74
2023/01/27 13:16:57;;;;;;;35.80;15.10;;;;;;;3.91;100.00;99392.27;107024;1277;26571;-73
2023/01/27 13:19:34;;;;;;;32.80;16.50;;;;;;;3.95;100.00;99406.02;106121;1277;1003488;-74
2023/01/27 13:22:03;;;;;;;36.60;17.40;;;;;;;4.02;100.00;99411.75;106818;1277;22534;-75
2023/01/27 13:24:37;;;;;;;34.50;15.90;;;;;;;3.99;100.00;99441.10;106797;1277;24787;-73
2023/01/27 13:27:14;;;;;;;37.00;16.60;;;;;;;3.92;100.00;99464.42;107529;1277;23098;-74
2023/01/27 13:29:43;;;;;;;30.90;14.90;;;;;;;3.74;100.00;99503.44;106889;1277;22529;-75
2023/01/27 13:32:19;;;;;;;29.60;14.60;;;;;;;3.61;100.00;99532.48;106756;1254;25497;-74
2023/01/27 13:34:59;;;;;;;32.30;15.40;;;;;;;3.49;100.00;99550.13;106765;1278;25304;-74
2023/01/27 13:37:47;;;;;;;30.30;13.70;;;;;;;3.38;100.00;99562.71;106789;1277;22698;-73
2023/01/27 13:40:24;;;;;;;30.60;12.80;;;;;;;3.22;100.00;99574.05;106005;1270;1003072;-74
2023/01/27 13:43:00;;;;;;;30.80;12.20;;;;;;;3.10;100.00;99580.25;106937;1270;22543;-74
2023/01/27 13:45:39;;;;;;;29.20;12.80;;;;;;;2.96;100.00;99585.62;106891;1277;22652;-73
2023/01/27 13:48:36;;;;;;;25.60;12.30;;;;;;;2.83;100.00;99585.63;107009;1278;22560;-74
2023/01/27 13:51:16;;;;;;;26.60;12.70;;;;;;;2.70;100.00;99588.35;106043;1277;1003440;-74
2023/01/27 13:53:46;;;;;;;29.60;12.10;;;;;;;2.56;100.00;99583.51;106995;1277;22530;-75
2023/01/27 13:56:16;;;;;;;29.60;11.30;;;;;;;2.46;100.00;99577.63;107243;1275;22852;-74
2023/01/27 13:59:18;;;;;;;33.40;12.90;;;;;;;2.33;100.00;99576.34;106807;1278;25402;-74
2023/01/27 14:01:59;;;;;;;25.00;10.80;;;;;;;2.15;100.00;99567.37;106842;1270;24242;-74
2023/01/27 14:04:52;;;;;;;28.40;11.80;;;;;;;1.97;100.00;99565.03;107101;1276;25260;-75
2023/01/27 14:07:35;;;;;;;31.00;13.80;;;;;;;1.77;100.00;99562.70;106758;1277;23880;-75
2023/01/27 14:10:16;;;;;;;29.90;13.00;;;;;;;1.54;100.00;99559.45;106020;1277;1003699;-75
2023/01/27 14:13:05;;;;;;;30.20;13.40;;;;;;;1.33;100.00;99548.33;106736;1278;26570;-75
2023/01/27 14:15:54;;;;;;;30.50;13.00;;;;;;;1.13;100.00;99535.21;106816;1277;25432;-76
2023/01/27 14:30:56;;;;;;;33.90;15.70;;;;;;;0.75;100.00;99476.85;105491;1298;557635;-75
2023/01/27 14:33:56;;;;;;;32.40;15.00;;;;;;;0.60;100.00;99406.35;105922;1273;1002600;-75